createdAt,value
2017-11-01T00:00:34.427Z,0
2017-11-01T00:01:14.872Z,0
2017-11-01T00:01:55.321Z,0
2017-11-01T00:02:35.767Z,0
2017-11-01T00:03:16.229Z,0
2017-11-01T00:03:56.682Z,0
2017-11-01T00:04:37.402Z,0
2017-11-01T00:05:17.852Z,0
2017-11-01T00:05:58.312Z,0
2017-11-01T00:06:38.790Z,0
2017-11-01T00:07:19.236Z,0
2017-11-01T00:07:59.680Z,0
2017-11-01T00:08:40.134Z,0
2017-11-01T00:09:20.609Z,0
2017-11-01T00:10:01.042Z,0
2017-11-01T00:10:41.496Z,0
2017-11-01T00:11:21.984Z,0
2017-11-01T00:12:02.437Z,0
2017-11-01T00:12:42.892Z,0
2017-11-01T00:13:23.339Z,0
2017-11-01T00:14:03.782Z,0
2017-11-01T00:14:44.229Z,0
2017-11-01T00:15:24.676Z,0
2017-11-01T00:16:05.125Z,0
2017-11-01T00:16:45.573Z,0
2017-11-01T00:17:26.030Z,0
2017-11-01T00:18:06.480Z,0
2017-11-01T00:18:46.930Z,0
2017-11-01T00:19:27.377Z,0
2017-11-01T00:20:07.821Z,0
2017-11-01T00:20:48.269Z,0
2017-11-01T00:21:28.724Z,0
2017-11-01T00:22:09.173Z,0
2017-11-01T00:22:49.628Z,0
2017-11-01T00:23:30.095Z,0
2017-11-01T00:24:10.519Z,0
2017-11-01T00:24:50.993Z,0
2017-11-01T00:25:31.442Z,0
2017-11-01T00:26:11.899Z,0
2017-11-01T00:26:52.346Z,0
2017-11-01T00:27:32.791Z,0
2017-11-01T00:28:13.241Z,0
2017-11-01T00:28:53.686Z,0
2017-11-01T00:29:34.135Z,0
2017-11-01T00:30:14.565Z,0
2017-11-01T00:30:55.021Z,0
2017-11-01T00:31:35.463Z,0
2017-11-01T00:32:15.915Z,0
2017-11-01T00:32:56.376Z,0
2017-11-01T00:33:36.807Z,0
2017-11-01T00:34:17.264Z,0
2017-11-01T00:34:57.718Z,0
2017-11-01T00:35:38.159Z,0
2017-11-01T00:36:18.606Z,0
2017-11-01T00:36:59.050Z,0
2017-11-01T00:37:39.500Z,0
2017-11-01T00:38:19.965Z,0
2017-11-01T00:39:00.407Z,0
2017-11-01T00:39:40.860Z,0
2017-11-01T00:40:21.314Z,0
2017-11-01T00:41:01.761Z,0
2017-11-01T00:41:42.222Z,0
2017-11-01T00:42:22.657Z,0
2017-11-01T00:43:03.115Z,0
2017-11-01T00:43:43.572Z,0
2017-11-01T00:44:24.017Z,0
2017-11-01T00:45:04.472Z,0
2017-11-01T00:45:44.912Z,0
2017-11-01T00:46:25.381Z,0
2017-11-01T00:47:05.830Z,0
2017-11-01T00:47:46.289Z,0
2017-11-01T00:48:26.737Z,0
2017-11-01T00:49:07.183Z,0
2017-11-01T00:49:47.620Z,0
2017-11-01T00:50:28.071Z,0
2017-11-01T00:51:08.514Z,0
2017-11-01T00:51:48.971Z,0
2017-11-01T00:52:29.434Z,0
2017-11-01T00:53:09.878Z,0
2017-11-01T00:53:50.331Z,0
2017-11-01T00:54:30.783Z,0
2017-11-01T00:55:11.224Z,0
2017-11-01T00:55:51.669Z,0
2017-11-01T00:56:32.138Z,0
2017-11-01T00:57:12.574Z,0
2017-11-01T00:57:53.043Z,0
2017-11-01T00:58:33.492Z,0
2017-11-01T00:59:13.970Z,0
2017-11-01T00:59:54.414Z,0
2017-11-01T01:00:34.864Z,0
2017-11-01T01:01:15.311Z,0
2017-11-01T01:01:55.760Z,0
2017-11-01T01:02:36.240Z,0
2017-11-01T01:03:16.674Z,0
2017-11-01T01:03:57.117Z,0
2017-11-01T01:04:37.572Z,0
2017-11-01T01:05:18.029Z,0
2017-11-01T01:05:58.481Z,0
2017-11-01T01:06:38.938Z,0
2017-11-01T01:07:19.404Z,0
2017-11-01T01:07:59.837Z,0
2017-11-01T01:08:40.294Z,0
2017-11-01T01:09:20.740Z,0
2017-11-01T01:10:01.196Z,0
2017-11-01T01:10:41.664Z,0
2017-11-01T01:11:22.130Z,0
2017-11-01T01:12:02.576Z,0
2017-11-01T01:12:43.024Z,0
2017-11-01T01:13:23.467Z,0
2017-11-01T01:14:03.929Z,0
2017-11-01T01:14:44.383Z,0
2017-11-01T01:15:24.842Z,0
2017-11-01T01:16:05.295Z,0
2017-11-01T01:16:45.744Z,0
2017-11-01T01:17:26.187Z,0
2017-11-01T01:18:06.639Z,0
2017-11-01T01:18:47.087Z,0
2017-11-01T01:19:27.524Z,0
2017-11-01T01:20:07.970Z,0
2017-11-01T01:20:48.421Z,0
2017-11-01T01:21:28.881Z,0
2017-11-01T01:22:09.328Z,0
2017-11-01T01:22:49.782Z,0
2017-11-01T01:23:30.226Z,0
2017-11-01T01:24:10.671Z,0
2017-11-01T01:24:51.116Z,0
2017-11-01T01:25:31.546Z,0
2017-11-01T01:26:11.990Z,0
2017-11-01T01:26:52.448Z,0
2017-11-01T01:27:32.887Z,0
2017-11-01T01:28:13.342Z,0
2017-11-01T01:28:53.792Z,0
2017-11-01T01:29:34.255Z,0
2017-11-01T01:30:14.705Z,0
2017-11-01T01:30:55.155Z,0
2017-11-01T01:31:35.625Z,0
2017-11-01T01:32:16.060Z,0
2017-11-01T01:32:56.521Z,0
2017-11-01T01:33:36.975Z,0
2017-11-01T01:34:17.428Z,0
2017-11-01T01:34:57.879Z,0
2017-11-01T01:35:38.326Z,0
2017-11-01T01:36:18.780Z,0
2017-11-01T01:36:59.229Z,0
2017-11-01T01:37:39.686Z,0
2017-11-01T01:38:20.141Z,0
2017-11-01T01:39:00.582Z,0
2017-11-01T01:39:41.033Z,0
2017-11-01T01:40:21.499Z,0
2017-11-01T01:41:01.948Z,0
2017-11-01T01:41:42.397Z,0
2017-11-01T01:42:22.856Z,0
2017-11-01T01:43:03.302Z,0
2017-11-01T01:43:43.751Z,0
2017-11-01T01:44:24.197Z,0
2017-11-01T01:45:04.656Z,0
2017-11-01T01:45:45.106Z,0
2017-11-01T01:46:25.561Z,0
2017-11-01T01:47:06.007Z,0
2017-11-01T01:47:46.458Z,0
2017-11-01T01:48:26.911Z,0
2017-11-01T01:49:07.359Z,0
2017-11-01T01:49:47.814Z,0
2017-11-01T01:50:28.277Z,0
2017-11-01T01:51:08.726Z,0
2017-11-01T01:51:49.171Z,0
2017-11-01T01:52:29.628Z,0
2017-11-01T01:53:10.100Z,0
2017-11-01T01:53:50.554Z,0
2017-11-01T01:54:31.021Z,0
2017-11-01T01:55:11.462Z,0
2017-11-01T01:55:51.912Z,0
2017-11-01T01:56:32.362Z,0
2017-11-01T01:57:12.823Z,0
2017-11-01T01:57:53.266Z,0
2017-11-01T01:58:33.720Z,0
2017-11-01T01:59:14.174Z,0
2017-11-01T01:59:54.624Z,0
2017-11-01T02:00:35.071Z,0
2017-11-01T02:01:15.534Z,0
2017-11-01T02:01:55.984Z,0
2017-11-01T02:02:36.423Z,0
2017-11-01T02:03:16.872Z,0
2017-11-01T02:03:57.329Z,0
2017-11-01T02:04:37.764Z,0
2017-11-01T02:05:18.217Z,0
2017-11-01T02:05:58.681Z,0
2017-11-01T02:06:39.139Z,0
2017-11-01T02:07:19.598Z,0
2017-11-01T02:08:00.055Z,0
2017-11-01T02:08:40.502Z,0
2017-11-01T02:09:20.949Z,0
2017-11-01T02:10:01.396Z,0
2017-11-01T02:10:41.851Z,0
2017-11-01T02:11:22.300Z,0
2017-11-01T02:12:02.766Z,0
2017-11-01T02:12:43.222Z,0
2017-11-01T02:13:23.683Z,0
2017-11-01T02:14:04.137Z,0
2017-11-01T02:14:44.575Z,0
2017-11-01T02:15:25.035Z,0
2017-11-01T02:16:05.482Z,0
2017-11-01T02:16:45.929Z,0
2017-11-01T02:17:26.383Z,0
2017-11-01T02:18:06.836Z,0
2017-11-01T02:18:47.276Z,0
2017-11-01T02:19:27.730Z,0
2017-11-01T02:20:08.221Z,0
2017-11-01T02:20:48.640Z,0
2017-11-01T02:21:29.100Z,0
2017-11-01T02:22:09.555Z,0
2017-11-01T02:22:50.019Z,0
2017-11-01T02:23:30.498Z,0
2017-11-01T02:24:10.953Z,0
2017-11-01T02:24:51.419Z,0
2017-11-01T02:25:31.864Z,0
2017-11-01T02:26:12.312Z,0
2017-11-01T02:26:52.764Z,0
2017-11-01T02:27:33.224Z,0
2017-11-01T02:28:13.673Z,0
2017-11-01T02:28:54.115Z,0
2017-11-01T02:29:34.569Z,0
2017-11-01T02:30:15.027Z,0
2017-11-01T02:30:55.487Z,0
2017-11-01T02:31:35.919Z,0
2017-11-01T02:32:16.365Z,0
2017-11-01T02:32:56.833Z,0
2017-11-01T02:33:37.299Z,0
2017-11-01T02:34:17.752Z,0
2017-11-01T02:34:58.206Z,0
2017-11-01T02:35:38.666Z,0
2017-11-01T02:36:19.117Z,0
2017-11-01T02:36:59.569Z,0
2017-11-01T02:37:40.018Z,0
2017-11-01T02:38:20.472Z,0
2017-11-01T02:39:00.934Z,0
2017-11-01T02:39:41.389Z,0
2017-11-01T02:40:21.854Z,0
2017-11-01T02:41:02.302Z,0
2017-11-01T02:41:42.745Z,0
2017-11-01T02:42:23.193Z,0
2017-11-01T02:43:03.638Z,0
2017-11-01T02:43:44.080Z,0
2017-11-01T02:44:24.527Z,0
2017-11-01T02:45:04.967Z,0
2017-11-01T02:45:45.417Z,0
2017-11-01T02:46:25.861Z,0
2017-11-01T02:47:06.307Z,0
2017-11-01T02:47:46.785Z,0
2017-11-01T02:48:27.226Z,0
2017-11-01T02:49:07.671Z,0
2017-11-01T02:49:48.136Z,0
2017-11-01T02:50:28.584Z,0
2017-11-01T02:51:09.030Z,0
2017-11-01T02:51:49.485Z,0
2017-11-01T02:52:29.942Z,0
2017-11-01T02:53:10.397Z,0
2017-11-01T02:53:50.844Z,0
2017-11-01T02:54:31.291Z,0
2017-11-01T02:55:11.743Z,0
2017-11-01T02:55:52.186Z,0
2017-11-01T02:56:32.640Z,0
2017-11-01T02:57:13.084Z,0
2017-11-01T02:57:53.541Z,0
2017-11-01T02:58:33.984Z,0
2017-11-01T02:59:14.434Z,0
2017-11-01T02:59:54.881Z,0
2017-11-01T03:00:35.353Z,0
2017-11-01T03:01:15.802Z,0
2017-11-01T03:01:56.250Z,0
2017-11-01T03:02:36.703Z,0
2017-11-01T03:03:17.170Z,0
2017-11-01T03:03:57.608Z,0
2017-11-01T03:04:38.057Z,0
2017-11-01T03:05:18.514Z,0
2017-11-01T03:05:58.969Z,0
2017-11-01T03:06:39.412Z,0
2017-11-01T03:07:19.870Z,0
2017-11-01T03:08:00.313Z,0
2017-11-01T03:08:40.772Z,0
2017-11-01T03:09:21.223Z,0
2017-11-01T03:10:01.682Z,0
2017-11-01T03:10:42.135Z,0
2017-11-01T03:11:22.592Z,0
2017-11-01T03:12:03.046Z,0
2017-11-01T03:12:43.492Z,0
2017-11-01T03:13:23.945Z,0
2017-11-01T03:14:04.400Z,0
2017-11-01T03:14:44.850Z,0
2017-11-01T03:15:25.300Z,0
2017-11-01T03:16:05.745Z,0
2017-11-01T03:16:46.191Z,0
2017-11-01T03:17:26.645Z,0
2017-11-01T03:18:07.090Z,0
2017-11-01T03:18:47.552Z,0
2017-11-01T03:19:27.999Z,0
2017-11-01T03:20:08.453Z,0
2017-11-01T03:20:48.907Z,0
2017-11-01T03:21:29.351Z,0
2017-11-01T03:22:09.799Z,0
2017-11-01T03:22:50.249Z,0
2017-11-01T03:23:30.694Z,0
2017-11-01T03:24:11.134Z,0
2017-11-01T03:24:51.606Z,0
2017-11-01T03:25:32.059Z,0
2017-11-01T03:26:12.537Z,0
2017-11-01T03:26:52.987Z,0
2017-11-01T03:27:33.436Z,0
2017-11-01T03:28:13.881Z,0
2017-11-01T03:28:54.336Z,0
2017-11-01T03:29:34.781Z,0
2017-11-01T03:30:15.241Z,0
2017-11-01T03:30:55.722Z,0
2017-11-01T03:31:36.149Z,0
2017-11-01T03:32:16.599Z,0
2017-11-01T03:32:57.050Z,0
2017-11-01T03:33:37.513Z,0
2017-11-01T03:34:17.964Z,0
2017-11-01T03:34:58.422Z,0
2017-11-01T03:35:38.882Z,0
2017-11-01T03:36:19.337Z,0
2017-11-01T03:36:59.787Z,0
2017-11-01T03:37:40.225Z,0
2017-11-01T03:38:20.692Z,0
2017-11-01T03:39:01.138Z,0
2017-11-01T03:39:41.589Z,0
2017-11-01T03:40:22.056Z,0
2017-11-01T03:41:02.500Z,0
2017-11-01T03:41:42.978Z,0
2017-11-01T03:42:23.423Z,0
2017-11-01T03:43:03.892Z,0
2017-11-01T03:43:44.344Z,0
2017-11-01T03:44:24.803Z,0
2017-11-01T03:45:05.285Z,0
2017-11-01T03:45:45.739Z,0
2017-11-01T03:46:26.188Z,0
2017-11-01T03:47:06.635Z,0
2017-11-01T03:47:47.088Z,0
2017-11-01T03:48:27.530Z,0
2017-11-01T03:49:07.975Z,0
2017-11-01T03:49:48.435Z,0
2017-11-01T03:50:28.889Z,0
2017-11-01T03:51:09.346Z,0
2017-11-01T03:51:49.811Z,0
2017-11-01T03:52:30.254Z,0
2017-11-01T03:53:10.700Z,0
2017-11-01T03:53:51.151Z,0
2017-11-01T03:54:31.597Z,0
2017-11-01T03:55:12.055Z,0
2017-11-01T03:55:52.504Z,0
2017-11-01T03:56:32.950Z,0
2017-11-01T03:57:13.399Z,0
2017-11-01T03:57:53.855Z,0
2017-11-01T03:58:34.286Z,0
2017-11-01T03:59:14.743Z,0
2017-11-01T03:59:55.196Z,0
2017-11-01T04:00:35.649Z,0
2017-11-01T04:01:16.093Z,0
2017-11-01T04:01:56.538Z,0
2017-11-01T04:02:36.989Z,0
2017-11-01T04:03:17.445Z,0
2017-11-01T04:03:57.889Z,0
2017-11-01T04:04:38.327Z,0
2017-11-01T04:05:18.770Z,0
2017-11-01T04:05:59.208Z,0
2017-11-01T04:06:39.660Z,0
2017-11-01T04:07:20.112Z,0
2017-11-01T04:08:00.568Z,0
2017-11-01T04:08:41.025Z,0
2017-11-01T04:09:21.487Z,0
2017-11-01T04:10:01.944Z,0
2017-11-01T04:10:42.389Z,0
2017-11-01T04:11:22.850Z,0
2017-11-01T04:12:03.313Z,0
2017-11-01T04:14:32.758Z,0
2017-11-01T04:15:13.208Z,0
2017-11-01T04:15:53.661Z,0
2017-11-01T04:16:34.106Z,0
2017-11-01T04:17:14.556Z,0
2017-11-01T04:17:55.001Z,0
2017-11-01T04:18:35.453Z,0
2017-11-01T04:19:15.899Z,0
2017-11-01T04:19:56.343Z,0
2017-11-01T04:20:36.786Z,0
2017-11-01T04:21:17.227Z,0
2017-11-01T04:21:57.666Z,0
2017-11-01T04:22:38.117Z,0
2017-11-01T04:23:18.567Z,0
2017-11-01T04:23:59.026Z,0
2017-11-01T04:24:39.488Z,0
2017-11-01T04:25:19.928Z,0
2017-11-01T04:26:00.376Z,0
2017-11-01T04:26:40.823Z,0
2017-11-01T04:27:21.262Z,0
2017-11-01T04:28:01.693Z,0
2017-11-01T04:28:42.147Z,0
2017-11-01T04:29:22.589Z,0
2017-11-01T04:30:03.042Z,0
2017-11-01T04:30:43.514Z,0
2017-11-01T04:31:23.963Z,0
2017-11-01T04:32:04.418Z,0
2017-11-01T04:32:44.878Z,0
2017-11-01T04:33:25.328Z,0
2017-11-01T04:34:05.775Z,0
2017-11-01T04:34:46.216Z,0
2017-11-01T04:35:26.699Z,0
2017-11-01T04:36:07.112Z,0
2017-11-01T04:36:47.546Z,0
2017-11-01T04:37:27.986Z,0
2017-11-01T04:38:08.445Z,0
2017-11-01T04:38:48.892Z,0
2017-11-01T04:39:29.353Z,0
2017-11-01T04:40:09.799Z,0
2017-11-01T04:40:50.245Z,0
2017-11-01T04:41:30.699Z,0
2017-11-01T04:42:11.185Z,0
2017-11-01T04:42:51.630Z,0
2017-11-01T04:43:32.076Z,0
2017-11-01T04:44:12.525Z,0
2017-11-01T04:44:52.974Z,0
2017-11-01T04:45:33.439Z,0
2017-11-01T04:46:13.887Z,0
2017-11-01T04:46:54.337Z,0
2017-11-01T04:47:34.783Z,0
2017-11-01T04:48:15.229Z,0
2017-11-01T04:48:55.675Z,0
2017-11-01T04:49:36.139Z,0
2017-11-01T04:50:16.594Z,0
2017-11-01T04:50:57.037Z,0
2017-11-01T04:51:37.486Z,0
2017-11-01T04:52:17.930Z,0
2017-11-01T04:52:58.376Z,0
2017-11-01T04:53:38.819Z,0
2017-11-01T04:54:19.267Z,0
2017-11-01T04:54:59.721Z,0
2017-11-01T04:55:40.175Z,0
2017-11-01T04:56:20.620Z,0
2017-11-01T04:57:01.079Z,0
2017-11-01T04:57:41.530Z,0
2017-11-01T04:58:21.989Z,0
2017-11-01T04:59:02.449Z,0
2017-11-01T04:59:42.887Z,0
2017-11-01T05:00:23.349Z,0
2017-11-01T05:01:03.797Z,0
2017-11-01T05:01:44.247Z,0
2017-11-01T05:02:24.699Z,0
2017-11-01T05:03:05.164Z,0
2017-11-01T05:03:45.620Z,0
2017-11-01T05:04:26.075Z,0
2017-11-01T05:05:06.529Z,0
2017-11-01T05:05:46.963Z,0
2017-11-01T05:06:27.434Z,0
2017-11-01T05:07:07.880Z,0
2017-11-01T05:07:48.336Z,0
2017-11-01T05:08:28.808Z,0
2017-11-01T05:09:09.231Z,0
2017-11-01T05:09:49.669Z,0
2017-11-01T05:10:30.121Z,0
2017-11-01T05:11:10.577Z,0
2017-11-01T05:11:51.028Z,0
2017-11-01T05:12:31.479Z,0
2017-11-01T05:13:11.925Z,0
2017-11-01T05:13:52.390Z,0
2017-11-01T05:14:32.851Z,0
2017-11-01T05:15:13.277Z,0
2017-11-01T05:15:53.721Z,0
2017-11-01T05:16:34.165Z,0
2017-11-01T05:17:14.627Z,0
2017-11-01T05:17:55.080Z,0
2017-11-01T05:18:35.523Z,0
2017-11-01T05:19:15.966Z,0
2017-11-01T05:19:56.417Z,0
2017-11-01T05:20:36.844Z,0
2017-11-01T05:21:17.288Z,0
2017-11-01T05:21:57.721Z,0
2017-11-01T05:22:38.177Z,0
2017-11-01T05:23:18.633Z,0
2017-11-01T05:23:59.114Z,0
2017-11-01T05:24:39.548Z,0
2017-11-01T05:25:20.005Z,0
2017-11-01T05:26:00.466Z,0
2017-11-01T05:26:40.924Z,0
2017-11-01T05:27:21.363Z,0
2017-11-01T05:28:01.829Z,0
2017-11-01T05:28:42.259Z,0
2017-11-01T05:29:22.715Z,0
2017-11-01T05:30:03.174Z,0
2017-11-01T05:30:43.638Z,0
2017-11-01T05:31:24.100Z,0
2017-11-01T05:32:04.549Z,0
2017-11-01T05:32:45.047Z,0
2017-11-01T05:33:25.522Z,0
2017-11-01T05:34:05.993Z,0
2017-11-01T05:34:46.429Z,0
2017-11-01T05:35:26.856Z,0
2017-11-01T05:36:07.314Z,0
2017-11-01T05:36:47.772Z,0
2017-11-01T05:37:28.236Z,0
2017-11-01T05:38:08.684Z,0
2017-11-01T05:38:49.141Z,0
2017-11-01T05:39:29.583Z,0
2017-11-01T05:40:10.037Z,0
2017-11-01T05:40:50.500Z,0
2017-11-01T05:41:30.948Z,0
2017-11-01T05:42:11.395Z,0
2017-11-01T05:42:51.860Z,0
2017-11-01T05:43:32.317Z,0
2017-11-01T05:44:12.786Z,0
2017-11-01T05:44:53.223Z,0
2017-11-01T05:45:33.676Z,0
2017-11-01T05:46:14.121Z,0
2017-11-01T05:46:54.565Z,0
2017-11-01T05:47:35.008Z,0
2017-11-01T05:48:15.449Z,0
2017-11-01T05:48:55.901Z,0
2017-11-01T05:49:36.337Z,0
2017-11-01T05:50:16.789Z,0
2017-11-01T05:50:57.244Z,0
2017-11-01T05:51:37.690Z,0
2017-11-01T05:52:18.174Z,0
2017-11-01T05:52:58.633Z,0
2017-11-01T05:53:39.087Z,0
2017-11-01T05:54:19.532Z,0
2017-11-01T05:55:00.023Z,0
2017-11-01T05:55:40.490Z,0
2017-11-01T05:56:20.943Z,0
2017-11-01T05:57:01.387Z,0
2017-11-01T05:57:41.848Z,0
2017-11-01T05:58:22.307Z,0
2017-11-01T05:59:02.761Z,0
2017-11-01T05:59:43.206Z,0
2017-11-01T06:00:23.637Z,0
2017-11-01T06:01:04.093Z,0
2017-11-01T06:01:44.538Z,0
2017-11-01T06:02:24.987Z,0
2017-11-01T06:03:05.459Z,0
2017-11-01T06:03:45.907Z,0
2017-11-01T06:04:26.321Z,0
2017-11-01T06:05:06.765Z,0
2017-11-01T06:05:47.267Z,0
2017-11-01T06:06:27.719Z,0
2017-11-01T06:07:08.189Z,0
2017-11-01T06:07:48.642Z,0
2017-11-01T06:08:29.099Z,0
2017-11-01T06:09:09.558Z,0
2017-11-01T06:09:49.987Z,0
2017-11-01T06:10:30.450Z,0
2017-11-01T06:11:10.891Z,0
2017-11-01T06:11:51.334Z,0
2017-11-01T06:12:31.796Z,0
2017-11-01T06:13:12.258Z,0
2017-11-01T06:13:52.906Z,0
2017-11-01T06:14:33.172Z,0
2017-11-01T06:15:13.626Z,0
2017-11-01T06:15:54.070Z,0
2017-11-01T06:16:34.518Z,0
2017-11-01T06:17:14.968Z,0
2017-11-01T06:17:55.418Z,0
2017-11-01T06:18:35.862Z,0
2017-11-01T06:19:16.318Z,0
2017-11-01T06:19:57.032Z,0
2017-11-01T06:20:37.477Z,0
2017-11-01T06:21:17.925Z,0
2017-11-01T06:21:58.369Z,0
2017-11-01T06:22:38.813Z,0
2017-11-01T06:23:19.267Z,0
2017-11-01T06:23:59.707Z,0
2017-11-01T06:24:40.218Z,0
2017-11-01T06:25:20.694Z,0
2017-11-01T06:26:01.163Z,0
2017-11-01T06:26:41.646Z,0
2017-11-01T06:27:22.091Z,0
2017-11-01T06:28:02.543Z,0
2017-11-01T06:28:43.001Z,0
2017-11-01T06:29:23.442Z,0
2017-11-01T06:30:03.887Z,0
2017-11-01T06:30:44.336Z,0
2017-11-01T06:31:24.781Z,0
2017-11-01T06:32:05.227Z,0
2017-11-01T06:32:45.676Z,0
2017-11-01T06:33:26.127Z,0
2017-11-01T06:34:06.563Z,0
2017-11-01T06:34:47.031Z,0
2017-11-01T06:35:27.452Z,0
2017-11-01T06:36:07.891Z,0
2017-11-01T06:36:48.329Z,0
2017-11-01T06:37:28.782Z,0
2017-11-01T06:38:09.231Z,0
2017-11-01T06:38:49.674Z,0
2017-11-01T06:39:30.113Z,0
2017-11-01T06:40:10.561Z,0
2017-11-01T06:40:50.999Z,0
2017-11-01T06:41:31.445Z,0
2017-11-01T06:42:11.904Z,0
2017-11-01T06:42:52.343Z,0
2017-11-01T06:43:32.798Z,0
2017-11-01T06:44:13.253Z,0
2017-11-01T06:44:53.698Z,0
2017-11-01T06:45:34.159Z,0
2017-11-01T06:46:14.610Z,0
2017-11-01T06:46:55.056Z,0
2017-11-01T06:47:35.510Z,0
2017-11-01T06:48:15.973Z,0
2017-11-01T06:48:56.430Z,0
2017-11-01T06:49:37.732Z,0
2017-11-01T06:50:18.141Z,0
2017-11-01T06:50:58.601Z,0
2017-11-01T06:51:39.038Z,0
2017-11-01T06:52:19.476Z,0
2017-11-01T06:52:59.935Z,0
2017-11-01T06:53:40.408Z,0
2017-11-01T06:54:20.778Z,0
2017-11-01T06:55:01.216Z,0
2017-11-01T06:55:41.663Z,0
2017-11-01T06:56:22.113Z,0
2017-11-01T06:57:02.578Z,0
2017-11-01T06:57:43.022Z,0
2017-11-01T06:58:23.479Z,0
2017-11-01T06:59:03.914Z,0
2017-11-01T06:59:44.358Z,0
2017-11-01T07:00:24.804Z,0
2017-11-01T07:01:05.249Z,0
2017-11-01T07:01:45.718Z,0
2017-11-01T07:02:26.182Z,0
2017-11-01T07:03:06.611Z,0
2017-11-01T07:03:47.062Z,0
2017-11-01T07:04:27.496Z,0
2017-11-01T07:05:07.957Z,0
2017-11-01T07:05:48.415Z,0
2017-11-01T07:06:28.864Z,0
2017-11-01T07:07:09.316Z,0
2017-11-01T07:07:49.769Z,0
2017-11-01T07:08:30.224Z,0
2017-11-01T07:09:10.677Z,0
2017-11-01T07:09:51.135Z,0
2017-11-01T07:10:31.602Z,0
2017-11-01T07:11:12.072Z,0
2017-11-01T07:11:52.536Z,0
2017-11-01T07:12:32.989Z,0
2017-11-01T07:13:13.442Z,0
2017-11-01T07:13:53.906Z,0
2017-11-01T07:14:34.365Z,0
2017-11-01T07:15:14.799Z,0
2017-11-01T07:15:55.253Z,0
2017-11-01T07:16:35.735Z,0
2017-11-01T07:17:16.174Z,0
2017-11-01T07:17:56.627Z,0
2017-11-01T07:18:37.078Z,0
2017-11-01T07:19:17.533Z,0
2017-11-01T07:19:57.990Z,0
2017-11-01T07:20:38.433Z,0
2017-11-01T07:21:18.896Z,0
2017-11-01T07:21:59.348Z,0
2017-11-01T07:22:39.813Z,0
2017-11-01T07:23:20.267Z,0
2017-11-01T07:24:00.716Z,0
2017-11-01T07:24:41.163Z,0
2017-11-01T07:25:21.612Z,0
2017-11-01T07:26:02.076Z,0
2017-11-01T07:26:42.550Z,0
2017-11-01T07:27:23.007Z,0
2017-11-01T07:28:03.473Z,0
2017-11-01T07:28:43.932Z,0
2017-11-01T07:29:24.386Z,0
2017-11-01T07:30:04.830Z,0
2017-11-01T07:30:45.274Z,0
2017-11-01T07:31:25.733Z,0
2017-11-01T07:32:06.184Z,0
2017-11-01T07:32:46.627Z,0
2017-11-01T07:33:27.084Z,0
2017-11-01T07:34:07.643Z,0
2017-11-01T07:34:48.087Z,0
2017-11-01T07:35:28.532Z,0
2017-11-01T07:36:08.976Z,0
2017-11-01T07:36:49.428Z,5
2017-11-01T07:37:29.887Z,5
2017-11-01T07:38:10.330Z,5
2017-11-01T07:38:50.817Z,5
2017-11-01T07:39:31.292Z,5
2017-11-01T07:40:11.734Z,5
2017-11-01T07:40:52.180Z,5
2017-11-01T07:41:32.630Z,5
2017-11-01T07:42:13.079Z,5
2017-11-01T07:42:53.536Z,5
2017-11-01T07:43:33.988Z,5
2017-11-01T07:44:14.440Z,5
2017-11-01T07:44:54.890Z,5
2017-11-01T07:45:35.348Z,5
2017-11-01T07:46:15.792Z,5
2017-11-01T07:46:56.236Z,5
2017-11-01T07:47:36.693Z,5
2017-11-01T07:48:17.153Z,5
2017-11-01T07:48:57.628Z,5
2017-11-01T07:49:38.038Z,5
2017-11-01T07:50:18.536Z,5
2017-11-01T07:50:58.994Z,5
2017-11-01T07:51:39.457Z,5
2017-11-01T07:52:20.053Z,5
2017-11-01T07:53:00.525Z,5
2017-11-01T07:53:41.067Z,5
2017-11-01T07:54:21.530Z,5
2017-11-01T07:55:02.008Z,5
2017-11-01T07:55:42.460Z,5
2017-11-01T07:56:22.896Z,5
2017-11-01T07:57:03.356Z,5
2017-11-01T07:57:43.818Z,5
2017-11-01T07:58:24.277Z,5
2017-11-01T07:59:04.796Z,5
2017-11-01T07:59:45.270Z,5
2017-11-01T08:00:25.727Z,5
2017-11-01T08:01:06.155Z,5
2017-11-01T08:01:46.605Z,5
2017-11-01T08:02:27.010Z,5
2017-11-01T08:03:07.415Z,5
2017-11-01T08:03:47.849Z,5
2017-11-01T08:04:28.292Z,5
2017-11-01T08:05:08.731Z,5
2017-11-01T08:05:49.173Z,5
2017-11-01T08:06:29.637Z,10
2017-11-01T08:07:10.119Z,10
2017-11-01T08:07:50.569Z,10
2017-11-01T08:08:31.026Z,10
2017-11-01T08:09:11.464Z,10
2017-11-01T08:09:51.914Z,10
2017-11-01T08:10:32.381Z,15
2017-11-01T08:11:12.837Z,15
2017-11-01T08:11:53.286Z,20
2017-11-01T08:12:33.726Z,20
2017-11-01T08:13:14.175Z,25
2017-11-01T08:13:54.624Z,25
2017-11-01T08:14:35.070Z,30
2017-11-01T08:15:15.519Z,30
2017-11-01T08:15:55.972Z,30
2017-11-01T08:16:36.454Z,30
2017-11-01T08:17:16.872Z,30
2017-11-01T08:17:57.325Z,30
2017-11-01T08:18:37.786Z,35
2017-11-01T08:19:18.239Z,35
2017-11-01T08:19:58.702Z,35
2017-11-01T08:20:39.158Z,35
2017-11-01T08:21:19.606Z,45
2017-11-01T08:22:00.053Z,50
2017-11-01T08:22:40.496Z,60
2017-11-01T08:23:20.943Z,70
2017-11-01T08:24:01.391Z,85
2017-11-01T08:24:41.858Z,85
2017-11-01T08:25:22.276Z,80
2017-11-01T08:26:02.730Z,70
2017-11-01T08:26:43.179Z,65
2017-11-01T08:27:23.632Z,60
2017-11-01T08:28:04.076Z,65
2017-11-01T08:28:44.528Z,75
2017-11-01T08:29:24.976Z,80
2017-11-01T08:30:05.437Z,75
2017-11-01T08:30:45.894Z,90
2017-11-01T08:31:26.347Z,215
2017-11-01T08:32:06.798Z,215
2017-11-01T08:32:47.252Z,215
2017-11-01T08:33:27.708Z,215
2017-11-01T08:34:08.164Z,220
2017-11-01T08:34:48.623Z,230
2017-11-01T08:35:29.064Z,235
2017-11-01T08:36:09.512Z,240
2017-11-01T08:36:49.963Z,245
2017-11-01T08:37:30.413Z,255
2017-11-01T08:38:10.871Z,265
2017-11-01T08:38:51.318Z,280
2017-11-01T08:39:31.758Z,300
2017-11-01T08:40:12.243Z,320
2017-11-01T08:40:52.792Z,355
2017-11-01T08:41:33.365Z,400
2017-11-01T08:42:13.829Z,650
2017-11-01T08:42:54.339Z,1085
2017-11-01T08:43:34.946Z,1495
2017-11-01T08:44:15.404Z,1615
2017-11-01T08:44:55.891Z,1670
2017-11-01T08:45:36.343Z,1640
2017-11-01T08:46:16.798Z,1605
2017-11-01T08:46:57.254Z,1540
2017-11-01T08:47:37.706Z,1545
2017-11-01T08:48:18.151Z,1445
2017-11-01T08:48:58.609Z,1275
2017-11-01T08:49:39.066Z,1135
2017-11-01T08:50:19.512Z,1035
2017-11-01T08:50:59.952Z,925
2017-11-01T08:51:40.397Z,815
2017-11-01T08:52:20.857Z,690
2017-11-01T08:53:01.329Z,555
2017-11-01T08:53:41.778Z,500
2017-11-01T08:54:22.231Z,460
2017-11-01T08:55:02.690Z,445
2017-11-01T08:55:43.314Z,430
2017-11-01T08:56:24.793Z,410
2017-11-01T08:57:05.270Z,395
2017-11-01T08:57:45.724Z,380
2017-11-01T08:58:26.178Z,380
2017-11-01T08:59:06.770Z,380
2017-11-01T08:59:47.236Z,375
2017-11-01T09:00:27.684Z,380
2017-11-01T09:01:08.136Z,370
2017-11-01T09:01:48.600Z,360
2017-11-01T09:02:29.060Z,355
2017-11-01T09:03:09.514Z,345
2017-11-01T09:03:49.965Z,335
2017-11-01T09:04:30.420Z,335
2017-11-01T09:05:10.880Z,335
2017-11-01T09:05:51.341Z,325
2017-11-01T09:06:31.791Z,320
2017-11-01T09:07:12.244Z,320
2017-11-01T09:07:52.959Z,315
2017-11-01T09:08:33.410Z,300
2017-11-01T09:09:13.864Z,300
2017-11-01T09:09:54.335Z,300
2017-11-01T09:10:34.783Z,300
2017-11-01T09:11:15.239Z,290
2017-11-01T09:11:55.698Z,285
2017-11-01T09:12:36.143Z,275
2017-11-01T09:13:16.730Z,270
2017-11-01T09:13:57.173Z,265
2017-11-01T09:14:37.635Z,260
2017-11-01T09:15:18.090Z,260
2017-11-01T09:15:58.542Z,255
2017-11-01T09:16:38.982Z,250
2017-11-01T09:17:19.439Z,245
2017-11-01T09:17:59.905Z,240
2017-11-01T09:18:40.351Z,240
2017-11-01T09:19:20.830Z,235
2017-11-01T09:20:01.288Z,235
2017-11-01T09:20:41.752Z,230
2017-11-01T09:21:22.216Z,230
2017-11-01T09:22:02.668Z,225
2017-11-01T09:22:43.118Z,225
2017-11-01T09:23:23.575Z,225
2017-11-01T09:24:04.029Z,225
2017-11-01T09:24:44.490Z,225
2017-11-01T09:25:24.944Z,225
2017-11-01T09:26:05.393Z,225
2017-11-01T09:26:45.857Z,230
2017-11-01T09:27:26.302Z,225
2017-11-01T09:28:06.767Z,225
2017-11-01T09:28:47.214Z,220
2017-11-01T09:29:27.674Z,220
2017-11-01T09:30:08.127Z,220
2017-11-01T09:30:48.605Z,220
2017-11-01T09:31:29.061Z,220
2017-11-01T09:32:09.535Z,225
2017-11-01T09:32:49.995Z,225
2017-11-01T09:33:30.460Z,225
2017-11-01T09:34:10.916Z,225
2017-11-01T09:34:51.369Z,225
2017-11-01T09:35:31.824Z,225
2017-11-01T09:36:12.270Z,225
2017-11-01T09:36:52.714Z,225
2017-11-01T09:37:33.191Z,225
2017-11-01T09:38:13.632Z,220
2017-11-01T09:38:54.080Z,225
2017-11-01T09:39:34.539Z,225
2017-11-01T09:40:15.001Z,225
2017-11-01T09:40:55.448Z,220
2017-11-01T09:41:35.898Z,225
2017-11-01T09:42:16.349Z,225
2017-11-01T09:42:56.808Z,220
2017-11-01T09:43:37.252Z,220
2017-11-01T09:44:17.699Z,220
2017-11-01T09:44:58.166Z,220
2017-11-01T09:45:38.587Z,215
2017-11-01T09:46:19.033Z,210
2017-11-01T09:46:59.546Z,215
2017-11-01T09:47:40.175Z,215
2017-11-01T09:48:20.660Z,215
2017-11-01T09:49:01.107Z,210
2017-11-01T09:49:41.571Z,210
2017-11-01T09:50:22.023Z,210
2017-11-01T09:51:02.479Z,210
2017-11-01T09:51:42.917Z,210
2017-11-01T09:52:23.366Z,210
2017-11-01T09:53:03.816Z,210